sensor_id;sensor_type;location;lat;lon;timestamp;P1;durP1;ratioP1;P2;durP2;ratioP2
50301;SDS011;36550;50.472;19.744;2022-12-07T00:00:49;18.07;;;8.08;;
50301;SDS011;36550;50.472;19.744;2022-12-07T00:03:33;18.00;;;8.83;;
50301;SDS011;36550;50.472;19.744;2022-12-07T00:06:19;19.27;;;9.93;;
50301;SDS011;36550;50.472;19.744;2022-12-07T00:09:05;19.27;;;8.85;;
50301;SDS011;36550;50.472;19.744;2022-12-07T00:11:52;13.98;;;7.78;;
50301;SDS011;36550;50.472;19.744;2022-12-07T00:14:36;14.35;;;7.33;;
50301;SDS011;36550;50.472;19.744;2022-12-07T00:17:20;15.58;;;7.92;;
50301;SDS011;36550;50.472;19.744;2022-12-07T00:20:05;15.98;;;7.62;;
50301;SDS011;36550;50.472;19.744;2022-12-07T00:22:50;14.28;;;7.75;;
50301;SDS011;36550;50.472;19.744;2022-12-07T00:25:34;14.28;;;7.10;;
50301;SDS011;36550;50.472;19.744;2022-12-07T00:28:19;14.58;;;6.53;;
50301;SDS011;36550;50.472;19.744;2022-12-07T00:31:07;14.07;;;6.62;;
50301;SDS011;36550;50.472;19.744;2022-12-07T00:33:54;11.57;;;6.80;;
50301;SDS011;36550;50.472;19.744;2022-12-07T00:36:39;13.65;;;6.90;;
50301;SDS011;36550;50.472;19.744;2022-12-07T00:39:23;12.20;;;6.12;;
50301;SDS011;36550;50.472;19.744;2022-12-07T00:42:07;12.33;;;6.40;;
50301;SDS011;36550;50.472;19.744;2022-12-07T00:44:52;9.93;;;4.80;;
50301;SDS011;36550;50.472;19.744;2022-12-07T00:47:36;15.32;;;7.67;;
50301;SDS011;36550;50.472;19.744;2022-12-07T00:50:20;13.50;;;7.42;;
50301;SDS011;36550;50.472;19.744;2022-12-07T00:53:04;13.65;;;6.95;;
50301;SDS011;36550;50.472;19.744;2022-12-07T00:55:49;13.40;;;6.45;;
50301;SDS011;36550;50.472;19.744;2022-12-07T00:58:33;13.68;;;6.03;;
50301;SDS011;36550;50.472;19.744;2022-12-07T01:01:18;17.30;;;9.08;;
50301;SDS011;36550;50.472;19.744;2022-12-07T01:04:02;17.20;;;9.53;;
50301;SDS011;36550;50.472;19.744;2022-12-07T01:06:47;14.47;;;7.70;;
50301;SDS011;36550;50.472;19.744;2022-12-07T01:09:31;16.75;;;8.68;;
50301;SDS011;36550;50.472;19.744;2022-12-07T01:12:15;12.43;;;6.40;;
50301;SDS011;36550;50.472;19.744;2022-12-07T01:15:00;11.48;;;6.85;;
50301;SDS011;36550;50.472;19.744;2022-12-07T01:17:44;14.05;;;7.42;;
50301;SDS011;36550;50.472;19.744;2022-12-07T01:20:28;11.20;;;6.67;;
50301;SDS011;36550;50.472;19.744;2022-12-07T01:23:13;11.57;;;6.35;;
50301;SDS011;36550;50.472;19.744;2022-12-07T01:25:58;12.43;;;6.08;;
50301;SDS011;36550;50.472;19.744;2022-12-07T01:28:45;12.58;;;7.25;;
50301;SDS011;36550;50.472;19.744;2022-12-07T01:31:29;13.20;;;7.45;;
50301;SDS011;36550;50.472;19.744;2022-12-07T01:34:14;11.22;;;6.25;;
50301;SDS011;36550;50.472;19.744;2022-12-07T01:36:58;13.45;;;6.60;;
50301;SDS011;36550;50.472;19.744;2022-12-07T01:39:43;13.72;;;6.83;;
50301;SDS011;36550;50.472;19.744;2022-12-07T01:42:27;13.22;;;6.20;;
50301;SDS011;36550;50.472;19.744;2022-12-07T01:48:26;11.05;;;5.72;;
50301;SDS011;36550;50.472;19.744;2022-12-07T01:51:24;11.63;;;5.72;;
50301;SDS011;36550;50.472;19.744;2022-12-07T01:54:10;16.97;;;7.42;;
50301;SDS011;36550;50.472;19.744;2022-12-07T01:59:42;21.37;;;8.63;;
50301;SDS011;36550;50.472;19.744;2022-12-07T02:02:30;28.52;;;10.32;;
50301;SDS011;36550;50.472;19.744;2022-12-07T02:05:17;35.05;;;11.22;;
50301;SDS011;36550;50.472;19.744;2022-12-07T02:08:03;20.23;;;8.83;;
50301;SDS011;36550;50.472;19.744;2022-12-07T02:10:47;16.75;;;7.35;;
50301;SDS011;36550;50.472;19.744;2022-12-07T02:13:32;12.15;;;6.05;;
50301;SDS011;36550;50.472;19.744;2022-12-07T02:16:28;10.82;;;6.15;;
50301;SDS011;36550;50.472;19.744;2022-12-07T02:34:55;17.02;;;8.30;;
50301;SDS011;36550;50.472;19.744;2022-12-07T02:37:43;15.70;;;7.08;;
50301;SDS011;36550;50.472;19.744;2022-12-07T02:41:07;11.73;;;5.60;;
50301;SDS011;36550;50.472;19.744;2022-12-07T02:43:55;10.85;;;5.53;;
50301;SDS011;36550;50.472;19.744;2022-12-07T02:46:48;11.55;;;5.58;;
50301;SDS011;36550;50.472;19.744;2022-12-07T02:49:37;12.70;;;5.50;;
50301;SDS011;36550;50.472;19.744;2022-12-07T02:55:07;10.48;;;4.60;;
50301;SDS011;36550;50.472;19.744;2022-12-07T03:01:24;11.08;;;5.65;;
50301;SDS011;36550;50.472;19.744;2022-12-07T03:11:08;12.68;;;5.67;;
50301;SDS011;36550;50.472;19.744;2022-12-07T03:14:05;14.25;;;6.17;;
50301;SDS011;36550;50.472;19.744;2022-12-07T03:17:13;13.25;;;5.83;;
50301;SDS011;36550;50.472;19.744;2022-12-07T03:20:03;13.22;;;6.25;;
50301;SDS011;36550;50.472;19.744;2022-12-07T03:22:52;12.13;;;6.37;;
50301;SDS011;36550;50.472;19.744;2022-12-07T03:28:32;10.50;;;5.72;;
50301;SDS011;36550;50.472;19.744;2022-12-07T03:34:34;15.65;;;6.72;;
50301;SDS011;36550;50.472;19.744;2022-12-07T03:37:12;12.40;;;5.17;;
50301;SDS011;36550;50.472;19.744;2022-12-07T03:40:07;9.55;;;5.00;;
50301;SDS011;36550;50.472;19.744;2022-12-07T03:42:57;12.20;;;6.17;;
50301;SDS011;36550;50.472;19.744;2022-12-07T03:45:50;10.58;;;5.85;;
50301;SDS011;36550;50.472;19.744;2022-12-07T03:48:42;11.73;;;6.35;;
50301;SDS011;36550;50.472;19.744;2022-12-07T03:51:46;12.25;;;5.85;;
50301;SDS011;36550;50.472;19.744;2022-12-07T03:57:43;10.20;;;5.22;;
50301;SDS011;36550;50.472;19.744;2022-12-07T04:00:31;12.75;;;5.45;;
50301;SDS011;36550;50.472;19.744;2022-12-07T04:03:16;13.05;;;6.22;;
50301;SDS011;36550;50.472;19.744;2022-12-07T04:06:01;11.68;;;4.87;;
50301;SDS011;36550;50.472;19.744;2022-12-07T04:08:45;11.57;;;6.28;;
50301;SDS011;36550;50.472;19.744;2022-12-07T04:11:30;17.57;;;8.28;;
50301;SDS011;36550;50.472;19.744;2022-12-07T04:14:14;13.40;;;6.10;;
50301;SDS011;36550;50.472;19.744;2022-12-07T04:17:01;13.90;;;5.95;;
50301;SDS011;36550;50.472;19.744;2022-12-07T04:19:46;14.25;;;6.40;;
50301;SDS011;36550;50.472;19.744;2022-12-07T04:22:30;11.57;;;5.58;;
50301;SDS011;36550;50.472;19.744;2022-12-07T04:25:14;13.18;;;6.00;;
50301;SDS011;36550;50.472;19.744;2022-12-07T04:27:59;10.98;;;5.62;;
50301;SDS011;36550;50.472;19.744;2022-12-07T04:30:43;10.60;;;5.75;;
50301;SDS011;36550;50.472;19.744;2022-12-07T04:33:29;13.05;;;6.55;;
50301;SDS011;36550;50.472;19.744;2022-12-07T04:36:13;9.70;;;5.20;;
50301;SDS011;36550;50.472;19.744;2022-12-07T04:38:57;10.80;;;5.25;;
50301;SDS011;36550;50.472;19.744;2022-12-07T04:41:42;11.08;;;5.58;;
50301;SDS011;36550;50.472;19.744;2022-12-07T04:44:27;10.03;;;4.95;;
50301;SDS011;36550;50.472;19.744;2022-12-07T04:47:12;11.83;;;5.78;;
50301;SDS011;36550;50.472;19.744;2022-12-07T04:49:56;14.53;;;6.62;;
50301;SDS011;36550;50.472;19.744;2022-12-07T04:52:40;14.63;;;7.90;;
50301;SDS011;36550;50.472;19.744;2022-12-07T04:55:25;11.00;;;6.00;;
50301;SDS011;36550;50.472;19.744;2022-12-07T04:58:09;9.73;;;4.97;;
50301;SDS011;36550;50.472;19.744;2022-12-07T05:00:55;9.25;;;4.85;;
50301;SDS011;36550;50.472;19.744;2022-12-07T05:03:39;12.37;;;5.97;;
50301;SDS011;36550;50.472;19.744;2022-12-07T05:06:23;15.70;;;7.90;;
50301;SDS011;36550;50.472;19.744;2022-12-07T05:09:08;14.15;;;6.00;;
50301;SDS011;36550;50.472;19.744;2022-12-07T05:11:52;13.70;;;6.75;;
50301;SDS011;36550;50.472;19.744;2022-12-07T05:14:36;11.63;;;6.20;;
50301;SDS011;36550;50.472;19.744;2022-12-07T05:17:21;11.78;;;6.53;;
50301;SDS011;36550;50.472;19.744;2022-12-07T05:20:05;16.23;;;7.62;;
50301;SDS011;36550;50.472;19.744;2022-12-07T05:22:50;13.60;;;6.58;;
50301;SDS011;36550;50.472;19.744;2022-12-07T05:25:35;11.28;;;6.10;;
50301;SDS011;36550;50.472;19.744;2022-12-07T05:28:20;10.13;;;5.17;;
50301;SDS011;36550;50.472;19.744;2022-12-07T05:31:04;10.48;;;5.92;;
50301;SDS011;36550;50.472;19.744;2022-12-07T05:33:48;15.50;;;6.78;;
50301;SDS011;36550;50.472;19.744;2022-12-07T05:36:33;12.75;;;5.95;;
50301;SDS011;36550;50.472;19.744;2022-12-07T05:39:18;14.80;;;7.05;;
50301;SDS011;36550;50.472;19.744;2022-12-07T05:42:02;14.63;;;7.47;;
50301;SDS011;36550;50.472;19.744;2022-12-07T05:44:55;11.35;;;6.22;;
50301;SDS011;36550;50.472;19.744;2022-12-07T05:47:40;16.55;;;7.78;;
50301;SDS011;36550;50.472;19.744;2022-12-07T05:50:24;17.32;;;7.97;;
50301;SDS011;36550;50.472;19.744;2022-12-07T05:53:08;16.05;;;7.35;;
50301;SDS011;36550;50.472;19.744;2022-12-07T05:55:53;17.73;;;8.98;;
50301;SDS011;36550;50.472;19.744;2022-12-07T05:58:37;16.50;;;8.15;;
50301;SDS011;36550;50.472;19.744;2022-12-07T06:01:40;18.32;;;9.33;;
50301;SDS011;36550;50.472;19.744;2022-12-07T06:04:25;16.93;;;8.48;;
50301;SDS011;36550;50.472;19.744;2022-12-07T06:07:13;19.55;;;9.40;;
50301;SDS011;36550;50.472;19.744;2022-12-07T06:10:00;17.90;;;8.63;;
50301;SDS011;36550;50.472;19.744;2022-12-07T06:12:44;17.48;;;9.05;;
50301;SDS011;36550;50.472;19.744;2022-12-07T06:15:29;22.25;;;10.43;;
50301;SDS011;36550;50.472;19.744;2022-12-07T06:18:14;15.25;;;7.10;;
50301;SDS011;36550;50.472;19.744;2022-12-07T06:20:59;15.85;;;7.47;;
50301;SDS011;36550;50.472;19.744;2022-12-07T06:23:43;19.20;;;8.63;;
50301;SDS011;36550;50.472;19.744;2022-12-07T06:26:27;20.70;;;8.38;;
50301;SDS011;36550;50.472;19.744;2022-12-07T06:29:11;22.55;;;10.25;;
50301;SDS011;36550;50.472;19.744;2022-12-07T06:31:56;16.12;;;7.50;;
50301;SDS011;36550;50.472;19.744;2022-12-07T06:34:40;15.88;;;7.62;;
50301;SDS011;36550;50.472;19.744;2022-12-07T06:37:25;17.77;;;9.28;;
50301;SDS011;36550;50.472;19.744;2022-12-07T06:40:09;12.43;;;6.30;;
50301;SDS011;36550;50.472;19.744;2022-12-07T06:42:54;13.68;;;5.78;;
50301;SDS011;36550;50.472;19.744;2022-12-07T06:45:38;15.72;;;7.10;;
50301;SDS011;36550;50.472;19.744;2022-12-07T06:48:22;9.95;;;4.70;;
50301;SDS011;36550;50.472;19.744;2022-12-07T06:51:07;11.25;;;5.20;;
50301;SDS011;36550;50.472;19.744;2022-12-07T06:53:51;6.92;;;3.45;;
50301;SDS011;36550;50.472;19.744;2022-12-07T06:56:36;8.40;;;4.62;;
50301;SDS011;36550;50.472;19.744;2022-12-07T06:59:21;10.72;;;4.15;;
50301;SDS011;36550;50.472;19.744;2022-12-07T07:02:05;8.55;;;3.17;;
50301;SDS011;36550;50.472;19.744;2022-12-07T07:04:49;6.72;;;2.70;;
50301;SDS011;36550;50.472;19.744;2022-12-07T07:07:34;7.05;;;2.87;;
50301;SDS011;36550;50.472;19.744;2022-12-07T07:10:18;7.42;;;3.22;;
50301;SDS011;36550;50.472;19.744;2022-12-07T07:13:03;6.95;;;3.15;;
50301;SDS011;36550;50.472;19.744;2022-12-07T07:15:47;7.85;;;3.17;;
50301;SDS011;36550;50.472;19.744;2022-12-07T07:18:32;6.28;;;2.90;;
50301;SDS011;36550;50.472;19.744;2022-12-07T07:21:16;5.92;;;2.95;;
50301;SDS011;36550;50.472;19.744;2022-12-07T07:24:00;7.20;;;2.90;;
50301;SDS011;36550;50.472;19.744;2022-12-07T07:26:45;7.42;;;2.52;;
50301;SDS011;36550;50.472;19.744;2022-12-07T07:29:29;5.17;;;2.70;;
50301;SDS011;36550;50.472;19.744;2022-12-07T07:32:13;5.08;;;2.27;;
50301;SDS011;36550;50.472;19.744;2022-12-07T07:34:58;4.60;;;2.45;;
50301;SDS011;36550;50.472;19.744;2022-12-07T07:37:42;7.05;;;3.00;;
50301;SDS011;36550;50.472;19.744;2022-12-07T07:40:26;6.05;;;2.98;;
50301;SDS011;36550;50.472;19.744;2022-12-07T07:43:14;7.35;;;2.83;;
50301;SDS011;36550;50.472;19.744;2022-12-07T07:45:58;4.30;;;2.27;;
50301;SDS011;36550;50.472;19.744;2022-12-07T07:48:43;7.83;;;2.83;;
50301;SDS011;36550;50.472;19.744;2022-12-07T07:51:27;4.25;;;2.12;;
50301;SDS011;36550;50.472;19.744;2022-12-07T07:54:12;6.47;;;3.02;;
50301;SDS011;36550;50.472;19.744;2022-12-07T07:56:56;7.72;;;3.37;;
50301;SDS011;36550;50.472;19.744;2022-12-07T07:59:40;7.45;;;3.58;;
50301;SDS011;36550;50.472;19.744;2022-12-07T08:02:25;8.05;;;3.60;;
50301;SDS011;36550;50.472;19.744;2022-12-07T08:05:13;11.18;;;5.33;;
50301;SDS011;36550;50.472;19.744;2022-12-07T08:07:56;8.80;;;4.47;;
50301;SDS011;36550;50.472;19.744;2022-12-07T08:10:41;10.28;;;4.50;;
50301;SDS011;36550;50.472;19.744;2022-12-07T08:13:26;13.22;;;6.22;;
50301;SDS011;36550;50.472;19.744;2022-12-07T08:16:10;8.80;;;3.67;;
50301;SDS011;36550;50.472;19.744;2022-12-07T08:18:55;9.63;;;4.62;;
50301;SDS011;36550;50.472;19.744;2022-12-07T08:21:39;11.10;;;4.78;;
50301;SDS011;36550;50.472;19.744;2022-12-07T08:24:23;16.10;;;8.25;;
50301;SDS011;36550;50.472;19.744;2022-12-07T08:27:08;26.93;;;12.43;;
50301;SDS011;36550;50.472;19.744;2022-12-07T08:29:52;17.57;;;7.85;;
50301;SDS011;36550;50.472;19.744;2022-12-07T08:32:37;13.00;;;6.28;;
50301;SDS011;36550;50.472;19.744;2022-12-07T08:35:21;19.37;;;7.37;;
50301;SDS011;36550;50.472;19.744;2022-12-07T08:38:05;37.75;;;13.10;;
50301;SDS011;36550;50.472;19.744;2022-12-07T08:40:57;18.48;;;8.13;;
50301;SDS011;36550;50.472;19.744;2022-12-07T08:43:43;31.80;;;13.88;;
50301;SDS011;36550;50.472;19.744;2022-12-07T08:46:46;18.07;;;8.20;;
50301;SDS011;36550;50.472;19.744;2022-12-07T08:49:41;21.00;;;7.97;;
50301;SDS011;36550;50.472;19.744;2022-12-07T08:52:32;14.10;;;7.53;;
50301;SDS011;36550;50.472;19.744;2022-12-07T08:55:18;10.55;;;5.15;;
50301;SDS011;36550;50.472;19.744;2022-12-07T08:58:03;8.30;;;3.77;;
50301;SDS011;36550;50.472;19.744;2022-12-07T09:00:48;11.35;;;6.35;;
50301;SDS011;36550;50.472;19.744;2022-12-07T09:03:32;28.27;;;12.95;;
50301;SDS011;36550;50.472;19.744;2022-12-07T09:06:17;20.25;;;9.38;;
50301;SDS011;36550;50.472;19.744;2022-12-07T09:09:02;15.43;;;7.30;;
50301;SDS011;36550;50.472;19.744;2022-12-07T09:11:47;19.20;;;9.20;;
50301;SDS011;36550;50.472;19.744;2022-12-07T09:14:32;20.97;;;10.13;;
50301;SDS011;36550;50.472;19.744;2022-12-07T09:17:16;25.70;;;13.28;;
50301;SDS011;36550;50.472;19.744;2022-12-07T09:20:00;24.27;;;10.80;;
50301;SDS011;36550;50.472;19.744;2022-12-07T09:22:45;14.03;;;6.35;;
50301;SDS011;36550;50.472;19.744;2022-12-07T09:25:29;19.27;;;8.53;;
50301;SDS011;36550;50.472;19.744;2022-12-07T09:28:13;17.67;;;8.75;;
50301;SDS011;36550;50.472;19.744;2022-12-07T09:30:57;22.93;;;11.22;;
50301;SDS011;36550;50.472;19.744;2022-12-07T09:33:42;24.75;;;10.00;;
50301;SDS011;36550;50.472;19.744;2022-12-07T09:36:26;24.35;;;11.43;;
50301;SDS011;36550;50.472;19.744;2022-12-07T09:39:12;18.42;;;7.87;;
50301;SDS011;36550;50.472;19.744;2022-12-07T09:41:56;23.32;;;10.10;;
50301;SDS011;36550;50.472;19.744;2022-12-07T09:44:41;19.77;;;9.43;;
50301;SDS011;36550;50.472;19.744;2022-12-07T09:47:26;21.70;;;9.15;;
50301;SDS011;36550;50.472;19.744;2022-12-07T09:53:13;16.67;;;6.85;;
50301;SDS011;36550;50.472;19.744;2022-12-07T09:55:59;20.57;;;8.78;;
50301;SDS011;36550;50.472;19.744;2022-12-07T10:01:31;16.45;;;7.53;;
50301;SDS011;36550;50.472;19.744;2022-12-07T10:04:20;14.65;;;7.22;;
50301;SDS011;36550;50.472;19.744;2022-12-07T10:07:07;19.40;;;10.28;;
50301;SDS011;36550;50.472;19.744;2022-12-07T10:09:52;26.77;;;12.35;;
50301;SDS011;36550;50.472;19.744;2022-12-07T10:12:56;17.17;;;9.05;;
50301;SDS011;36550;50.472;19.744;2022-12-07T10:18:41;16.15;;;7.83;;
50301;SDS011;36550;50.472;19.744;2022-12-07T10:21:26;12.00;;;6.62;;
50301;SDS011;36550;50.472;19.744;2022-12-07T10:26:58;11.10;;;6.60;;
50301;SDS011;36550;50.472;19.744;2022-12-07T10:29:42;13.72;;;7.17;;
50301;SDS011;36550;50.472;19.744;2022-12-07T10:32:34;22.17;;;11.35;;
50301;SDS011;36550;50.472;19.744;2022-12-07T10:35:28;15.63;;;7.72;;
50301;SDS011;36550;50.472;19.744;2022-12-07T10:38:16;14.35;;;7.15;;
50301;SDS011;36550;50.472;19.744;2022-12-07T10:41:06;18.35;;;7.95;;
50301;SDS011;36550;50.472;19.744;2022-12-07T10:43:52;12.82;;;6.40;;
50301;SDS011;36550;50.472;19.744;2022-12-07T10:46:46;10.98;;;5.47;;
50301;SDS011;36550;50.472;19.744;2022-12-07T10:59:19;17.62;;;7.72;;
50301;SDS011;36550;50.472;19.744;2022-12-07T11:05:13;14.75;;;6.95;;
50301;SDS011;36550;50.472;19.744;2022-12-07T11:08:21;16.62;;;8.35;;
50301;SDS011;36550;50.472;19.744;2022-12-07T11:14:25;43.50;;;15.55;;
50301;SDS011;36550;50.472;19.744;2022-12-07T11:17:45;53.50;;;22.55;;
50301;SDS011;36550;50.472;19.744;2022-12-07T11:26:54;23.92;;;12.95;;
50301;SDS011;36550;50.472;19.744;2022-12-07T11:36:14;16.48;;;9.68;;
50301;SDS011;36550;50.472;19.744;2022-12-07T11:42:21;19.02;;;9.93;;
50301;SDS011;36550;50.472;19.744;2022-12-07T11:45:15;14.80;;;9.50;;
50301;SDS011;36550;50.472;19.744;2022-12-07T11:50:59;16.27;;;9.78;;
50301;SDS011;36550;50.472;19.744;2022-12-07T11:56:33;23.30;;;12.98;;
50301;SDS011;36550;50.472;19.744;2022-12-07T11:59:32;18.75;;;10.55;;
50301;SDS011;36550;50.472;19.744;2022-12-07T12:02:24;19.50;;;9.85;;
50301;SDS011;36550;50.472;19.744;2022-12-07T12:05:24;19.05;;;10.82;;
50301;SDS011;36550;50.472;19.744;2022-12-07T12:08:14;17.85;;;10.35;;
50301;SDS011;36550;50.472;19.744;2022-12-07T12:17:35;16.32;;;8.73;;
50301;SDS011;36550;50.472;19.744;2022-12-07T12:23:41;19.95;;;10.15;;
50301;SDS011;36550;50.472;19.744;2022-12-07T12:26:33;17.55;;;10.43;;
50301;SDS011;36550;50.472;19.744;2022-12-07T12:29:37;17.30;;;9.83;;
50301;SDS011;36550;50.472;19.744;2022-12-07T12:32:36;17.40;;;10.63;;
50301;SDS011;36550;50.472;19.744;2022-12-07T12:35:28;37.08;;;20.97;;
50301;SDS011;36550;50.472;19.744;2022-12-07T12:38:31;24.35;;;13.00;;
50301;SDS011;36550;50.472;19.744;2022-12-07T12:48:00;32.78;;;17.75;;
50301;SDS011;36550;50.472;19.744;2022-12-07T12:50:27;20.72;;;12.33;;
50301;SDS011;36550;50.472;19.744;2022-12-07T12:53:24;17.95;;;10.58;;
50301;SDS011;36550;50.472;19.744;2022-12-07T12:59:23;16.77;;;9.30;;
50301;SDS011;36550;50.472;19.744;2022-12-07T13:05:22;23.18;;;11.53;;
50301;SDS011;36550;50.472;19.744;2022-12-07T13:08:21;20.40;;;10.05;;
50301;SDS011;36550;50.472;19.744;2022-12-07T13:11:18;21.77;;;10.95;;
50301;SDS011;36550;50.472;19.744;2022-12-07T13:14:35;21.35;;;11.38;;
50301;SDS011;36550;50.472;19.744;2022-12-07T13:20:45;22.07;;;10.98;;
50301;SDS011;36550;50.472;19.744;2022-12-07T13:29:25;22.70;;;11.90;;
50301;SDS011;36550;50.472;19.744;2022-12-07T13:32:17;20.90;;;10.58;;
50301;SDS011;36550;50.472;19.744;2022-12-07T13:38:25;18.32;;;9.83;;
50301;SDS011;36550;50.472;19.744;2022-12-07T13:41:17;18.67;;;10.48;;
50301;SDS011;36550;50.472;19.744;2022-12-07T13:44:09;21.93;;;9.53;;
50301;SDS011;36550;50.472;19.744;2022-12-07T13:47:00;15.40;;;9.33;;
50301;SDS011;36550;50.472;19.744;2022-12-07T13:50:20;16.20;;;8.98;;
50301;SDS011;36550;50.472;19.744;2022-12-07T13:53:12;15.53;;;8.67;;
50301;SDS011;36550;50.472;19.744;2022-12-07T13:55:58;18.05;;;7.97;;
50301;SDS011;36550;50.472;19.744;2022-12-07T13:58:44;19.80;;;9.68;;
50301;SDS011;36550;50.472;19.744;2022-12-07T14:01:30;17.45;;;9.50;;
50301;SDS011;36550;50.472;19.744;2022-12-07T14:07:22;23.22;;;9.75;;
50301;SDS011;36550;50.472;19.744;2022-12-07T14:10:23;14.03;;;7.33;;
50301;SDS011;36550;50.472;19.744;2022-12-07T14:16:37;15.30;;;7.50;;
50301;SDS011;36550;50.472;19.744;2022-12-07T14:19:40;15.40;;;7.62;;
50301;SDS011;36550;50.472;19.744;2022-12-07T14:22:33;13.20;;;7.65;;
50301;SDS011;36550;50.472;19.744;2022-12-07T14:25:21;15.23;;;7.50;;
50301;SDS011;36550;50.472;19.744;2022-12-07T14:28:09;18.17;;;9.68;;
50301;SDS011;36550;50.472;19.744;2022-12-07T14:31:17;17.07;;;8.23;;
50301;SDS011;36550;50.472;19.744;2022-12-07T14:34:05;16.17;;;8.43;;
50301;SDS011;36550;50.472;19.744;2022-12-07T14:36:52;15.30;;;7.58;;
50301;SDS011;36550;50.472;19.744;2022-12-07T14:39:37;13.25;;;6.87;;
50301;SDS011;36550;50.472;19.744;2022-12-07T14:42:21;14.50;;;7.60;;
50301;SDS011;36550;50.472;19.744;2022-12-07T14:45:13;17.20;;;9.35;;
50301;SDS011;36550;50.472;19.744;2022-12-07T14:47:59;18.42;;;7.78;;
50301;SDS011;36550;50.472;19.744;2022-12-07T14:50:44;12.55;;;5.50;;
50301;SDS011;36550;50.472;19.744;2022-12-07T14:53:35;14.35;;;7.92;;
50301;SDS011;36550;50.472;19.744;2022-12-07T14:56:24;16.77;;;8.03;;
50301;SDS011;36550;50.472;19.744;2022-12-07T14:59:08;21.77;;;10.20;;
50301;SDS011;36550;50.472;19.744;2022-12-07T15:01:53;19.62;;;10.32;;
50301;SDS011;36550;50.472;19.744;2022-12-07T15:04:38;17.67;;;8.68;;
50301;SDS011;36550;50.472;19.744;2022-12-07T15:07:22;18.42;;;10.48;;
50301;SDS011;36550;50.472;19.744;2022-12-07T15:10:13;18.30;;;9.68;;
50301;SDS011;36550;50.472;19.744;2022-12-07T15:13:02;21.40;;;11.05;;
50301;SDS011;36550;50.472;19.744;2022-12-07T15:16:12;20.60;;;10.88;;
50301;SDS011;36550;50.472;19.744;2022-12-07T15:19:00;19.95;;;8.65;;
50301;SDS011;36550;50.472;19.744;2022-12-07T15:21:44;20.02;;;10.13;;
50301;SDS011;36550;50.472;19.744;2022-12-07T15:24:29;15.90;;;9.58;;
50301;SDS011;36550;50.472;19.744;2022-12-07T15:27:13;14.85;;;9.33;;
50301;SDS011;36550;50.472;19.744;2022-12-07T15:29:58;17.57;;;9.50;;
50301;SDS011;36550;50.472;19.744;2022-12-07T15:32:42;14.33;;;8.53;;
50301;SDS011;36550;50.472;19.744;2022-12-07T15:35:26;19.92;;;10.35;;
50301;SDS011;36550;50.472;19.744;2022-12-07T15:38:11;15.72;;;9.33;;
50301;SDS011;36550;50.472;19.744;2022-12-07T15:40:56;18.52;;;10.23;;
50301;SDS011;36550;50.472;19.744;2022-12-07T15:43:41;16.77;;;8.97;;
50301;SDS011;36550;50.472;19.744;2022-12-07T15:46:43;21.15;;;10.50;;
50301;SDS011;36550;50.472;19.744;2022-12-07T15:49:28;22.95;;;11.22;;
50301;SDS011;36550;50.472;19.744;2022-12-07T15:52:12;18.92;;;10.43;;
50301;SDS011;36550;50.472;19.744;2022-12-07T15:54:56;21.25;;;12.75;;
50301;SDS011;36550;50.472;19.744;2022-12-07T15:57:40;24.37;;;10.70;;
50301;SDS011;36550;50.472;19.744;2022-12-07T16:00:25;23.45;;;11.80;;
50301;SDS011;36550;50.472;19.744;2022-12-07T16:03:09;35.60;;;16.20;;
50301;SDS011;36550;50.472;19.744;2022-12-07T16:05:53;35.75;;;16.12;;
50301;SDS011;36550;50.472;19.744;2022-12-07T16:08:41;30.75;;;14.93;;
50301;SDS011;36550;50.472;19.744;2022-12-07T16:11:29;51.88;;;21.90;;
50301;SDS011;36550;50.472;19.744;2022-12-07T16:14:13;40.35;;;18.00;;
50301;SDS011;36550;50.472;19.744;2022-12-07T16:16:57;45.25;;;19.77;;
50301;SDS011;36550;50.472;19.744;2022-12-07T16:19:42;38.23;;;18.35;;
50301;SDS011;36550;50.472;19.744;2022-12-07T16:22:26;50.45;;;21.65;;
50301;SDS011;36550;50.472;19.744;2022-12-07T16:25:11;39.08;;;16.17;;
50301;SDS011;36550;50.472;19.744;2022-12-07T16:27:55;34.58;;;16.25;;
50301;SDS011;36550;50.472;19.744;2022-12-07T16:30:39;25.68;;;13.05;;
50301;SDS011;36550;50.472;19.744;2022-12-07T16:33:23;25.27;;;13.25;;
50301;SDS011;36550;50.472;19.744;2022-12-07T16:36:08;18.48;;;9.45;;
50301;SDS011;36550;50.472;19.744;2022-12-07T16:41:38;25.70;;;11.48;;
50301;SDS011;36550;50.472;19.744;2022-12-07T16:44:22;28.67;;;12.70;;
50301;SDS011;36550;50.472;19.744;2022-12-07T16:47:06;35.00;;;15.50;;
50301;SDS011;36550;50.472;19.744;2022-12-07T16:49:51;40.35;;;16.27;;
50301;SDS011;36550;50.472;19.744;2022-12-07T16:52:35;39.65;;;17.27;;
50301;SDS011;36550;50.472;19.744;2022-12-07T16:55:19;31.82;;;15.60;;
50301;SDS011;36550;50.472;19.744;2022-12-07T16:58:04;39.05;;;13.65;;
50301;SDS011;36550;50.472;19.744;2022-12-07T17:00:50;38.15;;;16.15;;
50301;SDS011;36550;50.472;19.744;2022-12-07T17:03:34;32.20;;;13.93;;
50301;SDS011;36550;50.472;19.744;2022-12-07T17:06:19;29.35;;;13.60;;
50301;SDS011;36550;50.472;19.744;2022-12-07T17:09:06;27.90;;;12.98;;
50301;SDS011;36550;50.472;19.744;2022-12-07T17:11:52;31.00;;;12.90;;
50301;SDS011;36550;50.472;19.744;2022-12-07T17:14:37;32.90;;;15.90;;
50301;SDS011;36550;50.472;19.744;2022-12-07T17:17:39;31.42;;;12.40;;
50301;SDS011;36550;50.472;19.744;2022-12-07T17:20:25;29.48;;;12.63;;
50301;SDS011;36550;50.472;19.744;2022-12-07T17:23:10;28.27;;;14.40;;
50301;SDS011;36550;50.472;19.744;2022-12-07T17:25:54;32.93;;;13.53;;
50301;SDS011;36550;50.472;19.744;2022-12-07T17:28:39;29.95;;;13.08;;
50301;SDS011;36550;50.472;19.744;2022-12-07T17:31:23;24.82;;;12.80;;
50301;SDS011;36550;50.472;19.744;2022-12-07T17:34:13;25.55;;;13.03;;
50301;SDS011;36550;50.472;19.744;2022-12-07T17:36:55;21.95;;;12.05;;
50301;SDS011;36550;50.472;19.744;2022-12-07T17:39:40;21.90;;;11.53;;
50301;SDS011;36550;50.472;19.744;2022-12-07T17:42:24;24.57;;;13.60;;
50301;SDS011;36550;50.472;19.744;2022-12-07T17:45:22;24.02;;;12.82;;
50301;SDS011;36550;50.472;19.744;2022-12-07T17:48:07;28.95;;;14.75;;
50301;SDS011;36550;50.472;19.744;2022-12-07T17:50:53;28.30;;;14.45;;
50301;SDS011;36550;50.472;19.744;2022-12-07T17:54:02;24.63;;;12.58;;
50301;SDS011;36550;50.472;19.744;2022-12-07T17:56:46;28.87;;;13.35;;
50301;SDS011;36550;50.472;19.744;2022-12-07T17:59:32;25.92;;;12.93;;
50301;SDS011;36550;50.472;19.744;2022-12-07T18:02:17;25.85;;;12.47;;
50301;SDS011;36550;50.472;19.744;2022-12-07T18:07:53;27.58;;;12.47;;
50301;SDS011;36550;50.472;19.744;2022-12-07T18:10:37;27.48;;;13.03;;
50301;SDS011;36550;50.472;19.744;2022-12-07T18:13:22;22.65;;;11.20;;
50301;SDS011;36550;50.472;19.744;2022-12-07T18:16:19;25.50;;;11.85;;
50301;SDS011;36550;50.472;19.744;2022-12-07T18:19:08;26.77;;;12.53;;
50301;SDS011;36550;50.472;19.744;2022-12-07T18:21:55;30.12;;;13.65;;
50301;SDS011;36550;50.472;19.744;2022-12-07T18:24:39;22.22;;;10.68;;
50301;SDS011;36550;50.472;19.744;2022-12-07T18:27:24;26.35;;;12.13;;
50301;SDS011;36550;50.472;19.744;2022-12-07T18:30:08;25.62;;;11.50;;
50301;SDS011;36550;50.472;19.744;2022-12-07T18:32:53;22.95;;;13.05;;
50301;SDS011;36550;50.472;19.744;2022-12-07T18:35:37;26.60;;;12.47;;